Time;durP1;ratioP1;P1;durP2;ratioP2;P2;SDS_P1;SDS_P2;PMS_P1;PMS_P2;Temp;Humidity;BMP_temperature;BMP_pressure;BME280_temperature;BME280_humidity;BME280_pressure;Samples;Min_cycle;Max_cycle;Signal;HPM_P1;HPM_P2
2024/02/12 00:00:45;;;;;;;37.33;22.30;;;;;;;8.26;100.00;98231.59;1804069;78;25408;-52
2024/02/12 00:03:17;;;;;;;36.05;22.50;;;;;;;8.25;100.00;98230.05;1804203;79;25403;-54
2024/02/12 00:05:41;;;;;;;31.23;21.17;;;;;;;8.25;100.00;98232.73;1803864;79;26150;-54
2024/02/12 00:08:10;;;;;;;34.13;21.27;;;;;;;8.25;100.00;98233.52;1804235;79;25408;-52
2024/02/12 00:10:35;;;;;;;33.53;22.10;;;;;;;8.25;100.00;98231.39;1804001;79;27383;-52
2024/02/12 00:13:03;;;;;;;36.38;22.25;;;;;;;8.25;100.00;98230.82;1804113;79;25470;-55
2024/02/12 00:15:29;;;;;;;33.58;21.27;;;;;;;8.26;100.00;98230.25;1804177;78;25489;-53
2024/02/12 00:17:59;;;;;;;33.95;20.70;;;;;;;8.25;100.00;98226.01;1804103;79;25616;-54
2024/02/12 00:20:26;;;;;;;35.45;21.57;;;;;;;8.25;100.00;98226.78;1803848;79;25400;-52
2024/02/12 00:22:52;;;;;;;32.60;20.75;;;;;;;8.26;100.00;98231.05;1804145;78;27391;-52
2024/02/12 00:25:18;;;;;;;29.87;19.70;;;;;;;8.28;100.00;98238.79;1804039;79;25639;-49
2024/02/12 00:27:47;;;;;;;33.60;21.42;;;;;;;8.28;100.00;98233.41;1804178;78;25417;-52
2024/02/12 00:30:15;;;;;;;32.80;20.85;;;;;;;8.29;100.00;98234.41;1804151;78;27530;-51
2024/02/12 00:32:44;;;;;;;28.90;19.25;;;;;;;8.29;100.00;98233.06;1804151;79;25440;-55
2024/02/12 00:35:11;;;;;;;33.75;21.45;;;;;;;8.29;100.00;98230.91;1804297;79;28018;-52
2024/02/12 00:37:38;;;;;;;31.40;19.40;;;;;;;8.32;100.00;98228.89;1804094;79;25664;-54
2024/02/12 00:40:08;;;;;;;30.57;19.55;;;;;;;8.32;100.00;98232.35;1804147;79;25417;-51
2024/02/12 00:42:38;;;;;;;32.25;20.02;;;;;;;8.32;100.00;98232.35;1804116;79;25602;-52
2024/02/12 00:45:11;;;;;;;34.03;20.48;;;;;;;8.34;100.00;98231.47;1804203;79;25466;-51
2024/02/12 00:47:39;;;;;;;34.13;20.85;;;;;;;8.34;100.00;98226.63;1804127;79;27345;-53
2024/02/12 00:50:08;;;;;;;32.90;20.17;;;;;;;8.34;100.00;98229.32;1804033;79;25441;-52
2024/02/12 00:52:38;;;;;;;31.68;18.65;;;;;;;8.35;100.00;98226.86;1804106;79;25449;-52
2024/02/12 00:55:06;;;;;;;29.77;19.40;;;;;;;8.35;100.00;98223.59;1804093;79;26342;-54
2024/02/12 00:57:36;;;;;;;31.33;19.07;;;;;;;8.37;100.00;98225.37;1804285;79;25378;-54
2024/02/12 01:00:12;;;;;;;29.20;18.67;;;;;;;8.38;100.00;98233.69;1804135;79;27322;-52
2024/02/12 01:02:33;;;;;;;30.92;18.85;;;;;;;8.39;100.00;98223.14;1802852;79;25408;-51
2024/02/12 01:05:00;;;;;;;29.67;18.50;;;;;;;8.40;100.00;98226.03;1805527;79;25419;-51
2024/02/12 01:07:27;;;;;;;27.65;17.23;;;;;;;8.39;100.00;98219.09;1806633;79;25830;-54
2024/02/12 01:09:54;;;;;;;26.48;17.60;;;;;;;8.40;100.00;98236.04;1806727;79;25365;-51
2024/02/12 01:12:23;;;;;;;25.95;17.62;;;;;;;8.39;100.00;98231.77;1806676;79;27380;-56
2024/02/12 01:14:50;;;;;;;26.70;16.48;;;;;;;8.39;100.00;98221.80;1806554;79;25467;-51
2024/02/12 01:17:16;;;;;;;27.30;17.07;;;;;;;8.40;100.00;98226.61;1806698;79;25376;-52
2024/02/12 01:19:44;;;;;;;24.92;17.25;;;;;;;8.40;100.00;98222.56;1806651;79;26165;-54
2024/02/12 01:22:10;;;;;;;28.90;16.75;;;;;;;8.40;100.00;98221.99;1806736;79;25420;-54
2024/02/12 01:24:37;;;;;;;24.05;16.65;;;;;;;8.40;100.00;98223.34;1806676;79;27171;-51
2024/02/12 01:27:04;;;;;;;26.57;17.75;;;;;;;8.42;100.00;98229.73;1806567;79;25447;-51
2024/02/12 01:29:31;;;;;;;29.27;16.75;;;;;;;8.41;100.00;98235.70;1806663;79;25486;-55
2024/02/12 01:31:57;;;;;;;31.27;17.90;;;;;;;8.42;100.00;98232.43;1806617;79;25807;-54
2024/02/12 01:34:24;;;;;;;26.10;15.93;;;;;;;8.43;100.00;98222.45;1806648;79;25399;-53
2024/02/12 01:36:52;;;;;;;23.57;15.58;;;;;;;8.44;100.00;98235.59;1806674;79;27342;-53
2024/02/12 01:39:18;;;;;;;24.57;16.02;;;;;;;8.45;100.00;98233.13;1806561;79;25474;-52
2024/02/12 01:41:45;;;;;;;22.93;15.10;;;;;;;8.46;100.00;98229.28;1806669;79;25453;-53
2024/02/12 01:44:13;;;;;;;23.18;14.78;;;;;;;8.46;100.00;98221.20;1806625;79;25613;-53
2024/02/12 01:46:39;;;;;;;26.23;15.53;;;;;;;8.48;100.00;98224.90;1806667;79;25375;-52
2024/02/12 01:49:10;;;;;;;27.60;17.32;;;;;;;8.47;100.00;98224.13;1806640;79;27382;-55
2024/02/12 01:51:34;;;;;;;23.12;15.78;;;;;;;8.47;100.00;98230.09;1806202;79;25377;-51
2024/02/12 01:54:01;;;;;;;23.02;15.98;;;;;;;8.48;100.00;98235.67;1806636;79;25484;-52
2024/02/12 01:56:30;;;;;;;22.62;16.15;;;;;;;8.47;100.00;98224.13;1806617;79;26330;-52
2024/02/12 01:59:00;;;;;;;24.05;15.85;;;;;;;8.48;100.00;98227.05;1806848;79;25444;-52
2024/02/12 02:01:29;;;;;;;22.75;16.42;;;;;;;8.49;100.00;98232.64;1806815;79;27326;-54
2024/02/12 02:03:55;;;;;;;23.30;15.60;;;;;;;8.48;100.00;98227.59;1806425;79;25392;-53
2024/02/12 02:06:21;;;;;;;24.70;16.75;;;;;;;8.48;100.00;98224.36;1806585;79;25249;-54
2024/02/12 02:08:47;;;;;;;24.02;15.32;;;;;;;8.47;100.00;98220.66;1806595;79;25638;-52
2024/02/12 02:11:15;;;;;;;24.92;16.02;;;;;;;8.47;100.00;98222.78;1806635;79;25407;-52
2024/02/12 02:13:42;;;;;;;22.80;15.88;;;;;;;8.46;100.00;98226.59;1806600;79;27393;-55
2024/02/12 02:16:10;;;;;;;23.25;16.23;;;;;;;8.47;100.00;98227.39;1806544;79;25437;-52
2024/02/12 02:18:36;;;;;;;28.38;16.00;;;;;;;8.46;100.00;98227.16;1806635;79;25436;-56
2024/02/12 02:21:04;;;;;;;29.72;16.60;;;;;;;8.46;100.00;98229.85;1806605;79;26084;-53
2024/02/12 02:23:30;;;;;;;24.75;16.93;;;;;;;8.45;100.00;98233.70;1806632;79;25391;-52
2024/02/12 02:25:56;;;;;;;31.52;17.73;;;;;;;8.45;100.00;98230.42;1806629;79;27497;-53
2024/02/12 02:28:24;;;;;;;23.15;16.77;;;;;;;8.45;100.00;98226.39;1806576;79;25683;-56
2024/02/12 02:30:57;;;;;;;25.62;17.23;;;;;;;8.45;100.00;98232.34;1806648;79;25411;-52
2024/02/12 02:33:20;;;;;;;23.42;16.93;;;;;;;8.44;100.00;98231.55;1806356;79;25694;-52
2024/02/12 02:35:47;;;;;;;30.88;19.32;;;;;;;8.43;100.00;98232.69;1806622;79;25385;-55
2024/02/12 02:38:17;;;;;;;27.50;17.62;;;;;;;8.43;100.00;98238.08;1806599;79;27984;-53
2024/02/12 02:40:44;;;;;;;28.07;16.80;;;;;;;8.43;100.00;98241.31;1806518;79;25365;-55
2024/02/12 02:43:11;;;;;;;27.37;17.50;;;;;;;8.41;100.00;98238.39;1806580;79;25423;-52
2024/02/12 02:45:38;;;;;;;28.10;17.98;;;;;;;8.40;100.00;98232.77;1806567;79;25566;-52
2024/02/12 02:48:05;;;;;;;27.27;17.50;;;;;;;8.41;100.00;98234.89;1806605;79;25413;-52
2024/02/12 02:50:32;;;;;;;31.23;17.70;;;;;;;8.41;100.00;98234.89;1806586;79;28006;-52
2024/02/12 02:52:59;;;;;;;28.70;18.40;;;;;;;8.40;100.00;98232.77;1806487;79;25444;-52
2024/02/12 02:55:28;;;;;;;24.72;17.92;;;;;;;8.39;100.00;98235.80;1806619;79;25444;-53
2024/02/12 02:58:05;;;;;;;25.57;18.65;;;;;;;8.39;100.00;98236.61;1806554;79;26145;-52
2024/02/12 03:00:33;;;;;;;29.57;19.23;;;;;;;8.39;100.00;98242.00;1806641;79;25450;-54
2024/02/12 03:03:08;;;;;;;29.72;18.12;;;;;;;8.39;100.00;98240.65;1806594;79;27357;-51
2024/02/12 03:05:31;;;;;;;29.72;18.00;;;;;;;8.40;100.00;98238.73;1806079;79;25463;-57
2024/02/12 03:08:02;;;;;;;28.62;18.05;;;;;;;8.40;100.00;98233.34;1806605;79;25432;-53
2024/02/12 03:10:26;;;;;;;31.37;20.15;;;;;;;8.39;100.00;98240.65;1806104;79;25620;-53
2024/02/12 03:12:53;;;;;;;30.70;19.77;;;;;;;8.40;100.00;98240.08;1806584;79;25366;-53
2024/02/12 03:15:19;;;;;;;32.65;18.87;;;;;;;8.39;100.00;98236.61;1806605;79;27448;-54
2024/02/12 03:17:48;;;;;;;31.68;18.50;;;;;;;8.39;100.00;98239.84;1806486;79;25464;-53
2024/02/12 03:20:15;;;;;;;32.23;20.32;;;;;;;8.39;100.00;98241.20;1806621;79;25489;-55
2024/02/12 03:22:42;;;;;;;26.25;18.70;;;;;;;8.38;100.00;98244.46;1806722;79;25695;-53
2024/02/12 03:25:11;;;;;;;31.87;20.20;;;;;;;8.38;100.00;98249.84;1806798;79;25478;-54
2024/02/12 03:27:38;;;;;;;26.93;18.42;;;;;;;8.38;100.00;98249.07;1806905;79;27322;-55
2024/02/12 03:30:07;;;;;;;29.82;19.42;;;;;;;8.39;100.00;98255.47;1806661;79;25639;-57
2024/02/12 03:32:33;;;;;;;27.05;18.82;;;;;;;8.39;100.00;98257.36;1806752;79;25467;-54
2024/02/12 03:34:59;;;;;;;28.10;18.57;;;;;;;8.40;100.00;98259.71;1806728;79;25613;-56
2024/02/12 03:37:27;;;;;;;30.60;19.40;;;;;;;8.41;100.00;98264.52;1806789;79;25416;-55
2024/02/12 03:39:53;;;;;;;27.82;19.00;;;;;;;8.39;100.00;98258.16;1806756;79;27871;-54
2024/02/12 03:42:26;;;;;;;28.10;19.05;;;;;;;8.38;100.00;98261.97;1806651;79;25462;-55
2024/02/12 03:44:49;;;;;;;28.83;19.02;;;;;;;8.38;100.00;98266.01;1806640;79;25395;-53
2024/02/12 03:47:18;;;;;;;30.15;19.12;;;;;;;8.38;100.00;98261.97;1806709;79;25682;-54
2024/02/12 04:00:44;;;;;;;27.73;20.20;;;;;;;8.35;100.00;98277.47;1806730;79;25611;-53
2024/02/12 04:03:13;;;;;;;29.32;20.92;;;;;;;8.35;100.00;98280.16;1806761;79;25460;-52
2024/02/12 04:05:39;;;;;;;28.40;19.52;;;;;;;8.36;100.00;98280.94;1805673;79;27173;-55
2024/02/12 04:08:09;;;;;;;28.50;19.37;;;;;;;8.35;100.00;98276.13;1804048;79;25429;-53
2024/02/12 04:10:34;;;;;;;26.07;18.57;;;;;;;8.35;100.00;98275.34;1804295;79;25392;-52
2024/02/12 04:13:03;;;;;;;29.90;19.73;;;;;;;8.35;100.00;98278.04;1804116;79;25650;-54
2024/02/12 04:15:29;;;;;;;29.80;20.23;;;;;;;8.35;100.00;98276.69;1804156;78;25481;-52
2024/02/12 04:17:55;;;;;;;32.40;20.23;;;;;;;8.35;100.00;98282.85;1804177;79;27344;-54
2024/02/12 04:20:22;;;;;;;30.32;20.02;;;;;;;8.35;100.00;98277.47;1804095;79;25560;-53
2024/02/12 04:22:52;;;;;;;32.28;20.27;;;;;;;8.35;100.00;98276.13;1804173;79;25407;-53
2024/02/12 04:25:19;;;;;;;30.15;20.72;;;;;;;8.35;100.00;98274.77;1803932;79;25625;-52
2024/02/12 04:27:46;;;;;;;35.33;19.92;;;;;;;8.34;100.00;98279.95;1804193;78;25403;-52
2024/02/12 04:30:12;;;;;;;28.65;20.50;;;;;;;8.35;100.00;98278.81;1804159;79;26877;-52
2024/02/12 04:32:39;;;;;;;29.42;20.05;;;;;;;8.35;100.00;98285.55;1804015;79;25547;-55
2024/02/12 04:35:07;;;;;;;28.83;20.50;;;;;;;8.35;100.00;98282.08;1804157;79;25470;-53
2024/02/12 04:37:33;;;;;;;33.05;21.33;;;;;;;8.35;100.00;98281.50;1804114;79;25424;-52
2024/02/12 04:40:03;;;;;;;36.23;21.57;;;;;;;8.35;100.00;98284.20;1804188;79;25405;-53
2024/02/12 04:42:29;;;;;;;29.35;20.80;;;;;;;8.37;100.00;98283.86;1804216;78;28136;-56
2024/02/12 04:44:55;;;;;;;30.88;20.82;;;;;;;8.37;100.00;98290.02;1804059;79;25452;-56
2024/02/12 04:47:21;;;;;;;28.47;20.62;;;;;;;8.36;100.00;98289.02;1804166;78;25470;-52
2024/02/12 04:49:47;;;;;;;27.82;20.68;;;;;;;8.36;100.00;98286.33;1804108;79;26220;-53
2024/02/12 04:52:14;;;;;;;26.37;20.20;;;;;;;8.37;100.00;98298.11;1804160;79;25397;-52
2024/02/12 04:54:41;;;;;;;31.12;21.73;;;;;;;8.37;100.00;98291.95;1804101;79;27407;-53
2024/02/12 04:57:08;;;;;;;33.83;21.10;;;;;;;8.36;100.00;98290.36;1804040;79;25665;-55
2024/02/12 04:59:36;;;;;;;30.20;20.20;;;;;;;8.36;100.00;98299.80;1804132;79;25475;-54
2024/02/12 05:02:04;;;;;;;33.63;21.40;;;;;;;8.33;100.00;98291.84;1804098;78;25602;-54
2024/02/12 05:04:32;;;;;;;31.93;20.55;;;;;;;8.33;100.00;98294.54;1804138;79;25470;-53
2024/02/12 05:06:59;;;;;;;30.05;20.30;;;;;;;8.34;100.00;98302.05;1764101;79;28020;-52
2024/02/12 05:09:25;;;;;;;29.20;20.15;;;;;;;8.34;100.00;98302.85;1755258;81;25414;-52
2024/02/12 05:11:51;;;;;;;29.75;20.77;;;;;;;8.34;100.00;98302.85;1755363;81;25417;-53
2024/02/12 05:14:23;;;;;;;27.17;19.35;;;;;;;8.32;100.00;98297.00;1755278;81;25604;-53
2024/02/12 05:16:47;;;;;;;26.90;19.35;;;;;;;8.33;100.00;98305.89;1754805;81;25457;-53
2024/02/12 05:24:43;;;;;;;28.07;18.60;;;;;;;8.30;100.00;98303.88;1755364;81;25473;-52
2024/02/12 05:27:09;;;;;;;30.30;20.10;;;;;;;8.30;100.00;98305.22;1755301;81;25572;-50
2024/02/12 05:29:37;;;;;;;26.87;19.45;;;;;;;8.29;100.00;98299.59;1755342;81;25398;-52
2024/02/12 05:32:05;;;;;;;29.15;19.17;;;;;;;8.28;100.00;98313.64;1755338;81;27319;-51
2024/02/12 05:34:33;;;;;;;26.10;19.32;;;;;;;8.29;100.00;98311.72;1755210;81;25592;-51
2024/02/12 05:36:59;;;;;;;29.48;19.42;;;;;;;8.29;100.00;98315.76;1755329;81;25485;-54
2024/02/12 05:39:25;;;;;;;26.65;19.05;;;;;;;8.28;100.00;98320.94;1765808;81;25606;-54
2024/02/12 05:41:52;;;;;;;29.05;17.70;;;;;;;8.27;100.00;98321.48;1755348;81;25461;-54
2024/02/12 05:44:19;;;;;;;28.98;19.07;;;;;;;8.27;100.00;98324.75;1755278;81;28024;-55
2024/02/12 05:46:45;;;;;;;29.55;19.20;;;;;;;8.27;100.00;98328.79;1755239;81;25421;-55
2024/02/12 05:49:14;;;;;;;28.77;19.05;;;;;;;8.27;100.00;98330.14;1755318;81;25463;-52
2024/02/12 05:51:43;;;;;;;27.13;18.67;;;;;;;8.26;100.00;98334.75;1755266;81;25600;-52
2024/02/12 05:54:08;;;;;;;30.37;18.40;;;;;;;8.27;100.00;98338.22;1755272;81;25395;-51
2024/02/12 05:56:39;;;;;;;27.22;18.15;;;;;;;8.26;100.00;98334.75;1755314;81;27322;-53
2024/02/12 05:59:04;;;;;;;25.27;17.57;;;;;;;8.25;100.00;98342.59;1754711;81;25478;-53
2024/02/12 06:01:31;;;;;;;27.95;18.42;;;;;;;8.25;100.00;98345.86;1765825;81;25430;-52
2024/02/12 06:03:58;;;;;;;24.47;17.17;;;;;;;8.23;100.00;98346.98;1765774;81;25790;-51
2024/02/12 06:06:25;;;;;;;22.95;16.30;;;;;;;8.22;100.00;98342.73;1765522;81;25366;-52
2024/02/12 06:08:52;;;;;;;20.25;14.80;;;;;;;8.21;100.00;98350.58;1738141;82;27890;-50
2024/02/12 06:11:18;;;;;;;21.25;15.63;;;;;;;8.22;100.00;98362.13;1737933;82;25550;-48
2024/02/12 06:13:45;;;;;;;20.23;15.80;;;;;;;8.20;100.00;98360.34;1738248;82;25576;-52
2024/02/12 06:16:11;;;;;;;21.70;15.78;;;;;;;8.20;100.00;98356.30;1738398;82;25656;-55
2024/02/12 06:18:39;;;;;;;21.17;15.10;;;;;;;8.20;100.00;98353.03;1738445;82;25474;-53
2024/02/12 06:21:05;;;;;;;17.95;13.32;;;;;;;8.20;100.00;98357.08;1738403;82;27306;-52
2024/02/12 06:23:32;;;;;;;18.07;13.40;;;;;;;8.19;100.00;98355.52;1738454;82;25595;-55
2024/02/12 06:25:58;;;;;;;18.85;14.15;;;;;;;8.18;100.00;98362.02;1738563;82;25501;-54
2024/02/12 06:28:25;;;;;;;18.50;12.75;;;;;;;8.16;100.00;98358.89;1738524;82;25609;-52
2024/02/12 06:30:52;;;;;;;20.25;12.93;;;;;;;8.15;100.00;98361.34;1738570;82;25383;-53
2024/02/12 06:33:18;;;;;;;17.42;13.03;;;;;;;8.15;100.00;98358.66;1738537;82;27349;-53
2024/02/12 06:35:44;;;;;;;17.85;12.50;;;;;;;8.15;100.00;98365.96;1738456;82;25647;-54
2024/02/12 06:38:11;;;;;;;18.10;13.03;;;;;;;8.15;100.00;98362.70;1738548;82;25394;-52
2024/02/12 06:40:37;;;;;;;16.27;12.03;;;;;;;8.16;100.00;98362.16;1738501;82;25596;-52
2024/02/12 06:43:04;;;;;;;15.18;11.73;;;;;;;8.16;100.00;98362.93;1738574;82;25470;-53
2024/02/12 06:45:32;;;;;;;15.28;10.90;;;;;;;8.15;100.00;98364.61;1738544;82;27950;-53
2024/02/12 06:47:58;;;;;;;14.68;10.78;;;;;;;8.15;100.00;98365.96;1738474;82;25457;-54
2024/02/12 06:50:25;;;;;;;16.10;10.38;;;;;;;8.13;100.00;98367.64;1738552;82;25497;-52
2024/02/12 06:52:52;;;;;;;13.70;10.82;;;;;;;8.13;100.00;98377.06;1738508;82;25609;-53
2024/02/12 06:55:19;;;;;;;15.70;10.23;;;;;;;8.11;100.00;98376.63;1738540;82;25465;-52
2024/02/12 06:57:45;;;;;;;12.40;9.60;;;;;;;8.11;100.00;98375.85;1719689;82;27347;-55
2024/02/12 07:00:16;;;;;;;10.70;8.70;;;;;;;8.11;100.00;98373.16;1738446;82;25454;-52
2024/02/12 07:02:43;;;;;;;11.68;8.68;;;;;;;8.09;100.00;98377.53;1738589;82;25424;-55
2024/02/12 07:05:16;;;;;;;11.95;8.70;;;;;;;8.09;100.00;98380.77;1738454;82;26156;-54
2024/02/12 07:07:42;;;;;;;11.78;8.18;;;;;;;8.08;100.00;98381.91;1734969;82;25386;-52
2024/02/12 07:10:09;;;;;;;10.30;8.40;;;;;;;8.09;100.00;98391.00;1734342;82;26947;-55
2024/02/12 07:12:38;;;;;;;9.68;7.25;;;;;;;8.07;100.00;98390.56;1734261;82;25415;-52
2024/02/12 07:15:08;;;;;;;11.28;7.80;;;;;;;8.03;100.00;98390.99;1734444;82;25493;-55
2024/02/12 07:17:35;;;;;;;9.00;6.92;;;;;;;8.04;100.00;98394.70;1734330;82;26430;-55
2024/02/12 07:20:09;;;;;;;9.35;7.12;;;;;;;8.03;100.00;98392.34;1734369;82;25450;-52
2024/02/12 07:22:36;;;;;;;9.83;6.95;;;;;;;8.05;100.00;98395.47;1734366;82;27308;-52
2024/02/12 07:25:04;;;;;;;7.65;6.60;;;;;;;8.03;100.00;98396.38;1734256;82;25399;-54
2024/02/12 07:27:31;;;;;;;7.97;6.03;;;;;;;8.03;100.00;98402.54;1734328;82;25384;-54
2024/02/12 07:29:57;;;;;;;11.03;6.78;;;;;;;8.03;100.00;98407.15;1734305;81;25407;-53
2024/02/12 07:32:23;;;;;;;8.20;6.40;;;;;;;8.03;100.00;98403.11;1734370;82;25392;-52
2024/02/12 07:34:50;;;;;;;10.82;6.00;;;;;;;8.05;100.00;98406.24;1734326;81;27324;-53
2024/02/12 07:37:18;;;;;;;8.05;6.70;;;;;;;8.05;100.00;98410.28;1734228;82;25410;-54
2024/02/12 07:39:44;;;;;;;7.25;6.10;;;;;;;8.10;100.00;98413.31;1734332;82;25433;-53
2024/02/12 07:42:11;;;;;;;7.67;6.17;;;;;;;8.10;100.00;98409.28;1734307;82;25607;-52
2024/02/12 07:44:38;;;;;;;8.33;6.47;;;;;;;8.13;100.00;98416.12;1734354;82;25426;-55
2024/02/12 07:47:05;;;;;;;7.37;5.42;;;;;;;8.14;100.00;98411.50;1734315;82;27979;-52
2024/02/12 07:49:32;;;;;;;7.78;6.22;;;;;;;8.16;100.00;98423.52;1734266;82;25466;-56
2024/02/12 07:52:02;;;;;;;8.30;6.33;;;;;;;8.15;100.00;98411.73;1734291;82;25493;-52
2024/02/12 07:54:30;;;;;;;11.05;5.90;;;;;;;8.17;100.00;98417.03;1734400;82;25799;-52
2024/02/12 07:56:57;;;;;;;6.87;6.12;;;;;;;8.28;100.00;98438.89;1734373;82;25490;-54
2024/02/12 07:59:24;;;;;;;12.60;6.05;;;;;;;8.20;100.00;98420.37;1734317;82;27313;-52
2024/02/12 08:01:51;;;;;;;6.87;5.37;;;;;;;8.20;100.00;98419.02;1734243;82;25474;-53
2024/02/12 08:04:24;;;;;;;7.65;5.60;;;;;;;8.21;100.00;98426.56;1734339;82;25400;-53
2024/02/12 08:06:46;;;;;;;6.10;4.97;;;;;;;8.22;100.00;98425.42;1734547;82;25646;-54
2024/02/12 08:09:14;;;;;;;9.20;5.65;;;;;;;8.25;100.00;98420.70;1738687;82;25386;-52
2024/02/12 08:11:45;;;;;;;8.25;5.30;;;;;;;8.29;100.00;98431.58;1738661;82;27345;-52
2024/02/12 08:14:11;;;;;;;7.00;4.92;;;;;;;8.30;100.00;98431.82;1738543;82;25419;-55
2024/02/12 08:16:40;;;;;;;7.67;5.03;;;;;;;8.30;100.00;98433.17;1738496;82;25433;-52
2024/02/12 08:19:06;;;;;;;7.53;5.70;;;;;;;8.32;100.00;98434.38;1737885;82;26368;-53
2024/02/12 08:21:34;;;;;;;7.83;5.95;;;;;;;8.33;100.00;98436.53;1738703;82;25462;-51
2024/02/12 08:24:01;;;;;;;6.97;5.97;;;;;;;8.33;100.00;98440.00;1738648;82;27341;-53
2024/02/12 08:26:27;;;;;;;6.85;5.60;;;;;;;8.33;100.00;98441.35;1738619;82;25528;-53
2024/02/12 08:28:53;;;;;;;6.30;5.25;;;;;;;8.31;100.00;98442.80;1738645;82;25470;-52
2024/02/12 08:31:19;;;;;;;7.10;5.40;;;;;;;8.31;100.00;98446.30;1738616;82;26272;-54
2024/02/12 08:33:47;;;;;;;8.18;5.22;;;;;;;8.31;100.00;98448.99;1738651;82;25501;-53
2024/02/12 08:36:16;;;;;;;8.40;6.15;;;;;;;8.31;100.00;98447.64;1738655;82;28038;-51
2024/02/12 08:38:43;;;;;;;7.72;6.00;;;;;;;8.33;100.00;98459.44;1738695;82;25391;-51
2024/02/12 08:41:09;;;;;;;7.90;5.90;;;;;;;8.34;100.00;98456.95;1738637;82;25463;-51
2024/02/12 08:43:37;;;;;;;9.98;5.75;;;;;;;8.34;100.00;98460.98;1738616;82;26158;-54
2024/02/12 08:46:04;;;;;;;6.65;5.83;;;;;;;8.37;100.00;98464.36;1738653;82;25417;-51
2024/02/12 08:48:30;;;;;;;7.35;5.75;;;;;;;8.37;100.00;98463.01;1738640;82;27322;-54
2024/02/12 08:50:58;;;;;;;6.75;5.72;;;;;;;8.39;100.00;98464.80;1738550;82;25374;-52
2024/02/12 08:53:24;;;;;;;6.42;5.65;;;;;;;8.41;100.00;98470.63;1738654;82;25413;-53
2024/02/12 08:55:51;;;;;;;6.90;5.58;;;;;;;8.43;100.00;98477.05;1738578;82;25773;-52
2024/02/12 08:58:18;;;;;;;7.80;5.90;;;;;;;8.43;100.00;98477.86;1738673;82;25464;-53
2024/02/12 09:00:44;;;;;;;6.20;5.35;;;;;;;8.46;100.00;98477.73;1738647;82;27330;-51
2024/02/12 09:03:13;;;;;;;6.78;5.20;;;;;;;8.47;100.00;98482.00;1738543;82;25633;-55
2024/02/12 09:05:40;;;;;;;12.63;9.85;;;;;;;8.47;100.00;98481.44;1738610;82;25799;-52
2024/02/12 09:08:06;;;;;;;16.42;13.05;;;;;;;8.51;100.00;98493.66;1738531;82;25635;-53
2024/02/12 09:10:33;;;;;;;9.00;6.97;;;;;;;8.53;100.00;98486.83;1738662;82;25422;-49
2024/02/12 09:13:00;;;;;;;8.35;5.25;;;;;;;8.56;100.00;98492.89;1738600;82;27987;-53
2024/02/12 09:15:27;;;;;;;8.43;5.62;;;;;;;8.60;100.00;98493.00;1738487;82;25625;-50
2024/02/12 09:17:55;;;;;;;8.55;5.50;;;;;;;8.63;100.00;98490.17;1738584;82;25418;-48
2024/02/12 09:20:21;;;;;;;7.55;5.20;;;;;;;8.68;100.00;98496.67;1738573;82;26259;-49
2024/02/12 09:22:47;;;;;;;5.42;4.80;;;;;;;8.70;100.00;98504.66;1738643;82;25450;-46
2024/02/12 09:25:13;;;;;;;6.03;5.37;;;;;;;8.68;100.00;98506.11;1738614;82;27387;-46
2024/02/12 09:27:45;;;;;;;5.83;4.90;;;;;;;8.67;100.00;98507.25;1738532;82;25410;-46
2024/02/12 09:30:09;;;;;;;7.12;5.12;;;;;;;8.63;100.00;98504.42;1738900;82;25406;-50
2024/02/12 09:32:38;;;;;;;5.58;4.97;;;;;;;8.62;100.00;98508.83;1738592;82;25622;-47
2024/02/12 09:35:06;;;;;;;6.75;4.97;;;;;;;8.59;100.00;98518.36;1738337;82;25458;-51
2024/02/12 09:37:33;;;;;;;5.60;4.90;;;;;;;8.53;100.00;98533.98;1738872;82;27349;-54
2024/02/12 09:40:03;;;;;;;5.08;4.35;;;;;;;8.51;100.00;98530.05;1738529;82;25474;-52
2024/02/12 09:42:33;;;;;;;5.45;4.95;;;;;;;8.48;100.00;98526.13;1738739;82;25406;-54
2024/02/12 09:45:07;;;;;;;6.37;4.95;;;;;;;8.45;100.00;98528.15;1738610;82;26249;-52
2024/02/12 09:47:35;;;;;;;5.78;5.05;;;;;;;8.42;100.00;98530.13;1738645;82;25393;-52
2024/02/12 09:50:07;;;;;;;5.90;4.78;;;;;;;8.39;100.00;98526.77;1738834;82;28084;-54
2024/02/12 09:52:31;;;;;;;6.15;4.42;;;;;;;8.39;100.00;98524.06;1738689;82;33100;-51
2024/02/12 09:54:58;;;;;;;6.97;4.53;;;;;;;8.45;100.00;98544.31;1738560;82;25409;-51
2024/02/12 09:57:26;;;;;;;6.33;4.67;;;;;;;8.37;100.00;98530.36;1738533;82;25782;-51
2024/02/12 09:59:56;;;;;;;6.97;6.00;;;;;;;8.35;100.00;98533.38;1738633;82;25433;-50
2024/02/12 10:02:21;;;;;;;6.87;5.28;;;;;;;8.36;100.00;98534.97;1738654;82;27463;-52
2024/02/12 10:04:48;;;;;;;7.00;4.97;;;;;;;8.40;100.00;98539.89;1738502;82;25379;-52
2024/02/12 10:07:15;;;;;;;7.33;4.60;;;;;;;8.42;100.00;98543.61;1738499;82;25426;-48
2024/02/12 10:09:44;;;;;;;8.30;5.15;;;;;;;8.43;100.00;98535.78;1738530;82;25835;-47
2024/02/12 10:12:12;;;;;;;7.35;4.97;;;;;;;8.43;100.00;98540.38;1738723;82;25455;-48
2024/02/12 10:14:40;;;;;;;6.60;5.12;;;;;;;8.46;100.00;98545.09;1738532;82;27334;-47
2024/02/12 10:17:06;;;;;;;5.78;5.20;;;;;;;8.45;100.00;98545.66;1738502;82;25502;-48
2024/02/12 10:19:33;;;;;;;7.08;4.90;;;;;;;8.46;100.00;98539.13;1738633;82;25463;-49
2024/02/12 10:22:00;;;;;;;5.62;4.70;;;;;;;8.48;100.00;98541.49;1738528;82;26336;-48
2024/02/12 10:24:27;;;;;;;6.47;4.83;;;;;;;8.49;100.00;98541.73;1738590;82;25383;-47
2024/02/12 10:26:54;;;;;;;6.90;5.03;;;;;;;8.48;100.00;98542.30;1738610;82;27340;-48
2024/02/12 10:29:20;;;;;;;5.92;4.97;;;;;;;8.51;100.00;98548.37;1738580;82;25537;-48
2024/02/12 10:31:47;;;;;;;5.80;5.10;;;;;;;8.53;100.00;98545.30;1738569;82;25328;-48
2024/02/12 10:34:19;;;;;;;5.10;4.60;;;;;;;8.51;100.00;98547.02;1738497;82;25637;-48
2024/02/12 10:36:47;;;;;;;6.50;5.55;;;;;;;8.50;100.00;98541.39;1738592;82;25466;-48
2024/02/12 10:39:16;;;;;;;5.67;4.90;;;;;;;8.52;100.00;98541.05;1738556;82;27367;-48
2024/02/12 10:41:49;;;;;;;6.33;5.40;;;;;;;8.51;100.00;98541.62;1738624;82;25425;-48
2024/02/12 10:44:18;;;;;;;7.85;5.42;;;;;;;8.52;100.00;98544.53;1738481;82;25321;-48
2024/02/12 10:46:49;;;;;;;6.22;5.05;;;;;;;8.54;100.00;98549.02;1738339;82;25685;-48
2024/02/12 10:49:19;;;;;;;6.65;5.67;;;;;;;8.53;100.00;98551.50;1738656;82;25457;-48
2024/02/12 10:51:54;;;;;;;6.70;5.50;;;;;;;8.53;100.00;98546.66;1738616;82;27392;-52
2024/02/12 10:54:18;;;;;;;11.28;8.88;;;;;;;8.54;100.00;98554.41;1738678;82;25500;-54
2024/02/12 10:56:46;;;;;;;126.07;94.03;;;;;;;8.57;100.00;98557.00;1738542;82;25409;-55
2024/02/12 10:59:16;;;;;;;7.83;7.00;;;;;;;8.58;100.00;98558.02;1738529;82;25647;-55
2024/02/12 11:01:43;;;;;;;7.92;5.70;;;;;;;8.62;100.00;98556.77;1738578;82;25463;-54
2024/02/12 11:04:17;;;;;;;6.60;5.80;;;;;;;8.66;100.00;98558.23;1738546;82;27328;-54
2024/02/12 11:06:43;;;;;;;5.75;5.05;;;;;;;8.69;100.00;98558.33;1738467;82;25490;-51
2024/02/12 11:09:10;;;;;;;6.37;5.78;;;;;;;8.70;100.00;98555.88;1719385;82;25498;-54
2024/02/12 11:11:48;;;;;;;6.30;5.70;;;;;;;8.75;100.00;98568.31;1738504;82;26325;-53
2024/02/12 11:14:16;;;;;;;6.15;5.55;;;;;;;8.78;100.00;98568.99;1738562;82;25398;-54
2024/02/12 11:16:42;;;;;;;8.40;5.83;;;;;;;8.79;100.00;98560.57;1738542;82;27347;-52
2024/02/12 11:19:16;;;;;;;6.55;5.95;;;;;;;8.80;100.00;98566.73;1738429;82;25475;-53
2024/02/12 11:21:44;;;;;;;7.12;5.87;;;;;;;8.80;100.00;98564.04;1738493;82;25412;-52
2024/02/12 11:24:12;;;;;;;8.18;6.58;;;;;;;8.77;100.00;98562.83;1738481;82;25635;-53
2024/02/12 11:26:47;;;;;;;8.03;6.65;;;;;;;8.80;100.00;98561.34;1738544;82;25484;-54
2024/02/12 11:29:18;;;;;;;8.48;6.40;;;;;;;8.82;100.00;98561.01;1738505;82;28985;-56
2024/02/12 11:31:47;;;;;;;6.58;5.97;;;;;;;8.82;100.00;98563.70;1738517;82;25442;-55
2024/02/12 11:34:18;;;;;;;6.73;6.00;;;;;;;8.79;100.00;98568.66;1738755;82;25481;-54
2024/02/12 11:36:48;;;;;;;7.70;6.45;;;;;;;8.79;100.00;98575.39;1738329;82;25676;-55
2024/02/12 11:39:14;;;;;;;8.75;6.47;;;;;;;8.77;100.00;98574.17;1720027;82;25425;-53
2024/02/12 11:41:41;;;;;;;7.42;6.20;;;;;;;8.75;100.00;98577.75;1738714;82;27326;-53